CheckWX is a tool to help pilots better visualize weather data.  It is not intended as a substitute for an official pre-flight weather briefing.

14:32:53 UTC

KSZL METAR
Whiteman AFB Airport
Knob Noster, Missouri, USA
Current

37 mins ago

KSZL 221356Z 19021G27KT 10SM SCT050 BKN100 21/12 A2989 RMK AO2A SLP118 T02090123
Observed
Apr-22 @ 13:56 UTC
Wind
  • 190° at 21 KTS
  • Gusting to 27 KTS
Visibility
10 SM
Flight Rules
VFR
Cloud Levels
  • Scattered at 5,000' AGL
  • Broken at 10,000' AGL
Temperature
21°C / 70°F
Dewpoint
12°C / 54°F
Humidity
57%
Altimeter
29.89" Hg
Pressure
1012.22 hPa
Previous

2 hours ago

KSZL 221256Z 17012KT 10SM SCT050 BKN100 19/11 A2990 RMK AO2A SLP122 T01870113
Observed
Apr-22 @ 12:56 UTC
Wind
  • 170° at 12 KTS
Visibility
10 SM
Flight Rules
VFR
Cloud Levels
  • Scattered at 5,000' AGL
  • Broken at 10,000' AGL
Temperature
19°C / 66°F
Dewpoint
11°C / 52°F
Humidity
60%
Altimeter
29.9" Hg
Pressure
1012.52 hPa
Previous

3 hours ago

KSZL 221156Z 17012G17KT 10SM SCT050 BKN100 18/11 A2990 RMK AO2A SLP122 T01830109 10212 20183 58000
Observed
Apr-22 @ 11:56 UTC
Wind
  • 170° at 12 KTS
  • Gusting to 17 KTS
Visibility
10 SM
Flight Rules
VFR
Cloud Levels
  • Scattered at 5,000' AGL
  • Broken at 10,000' AGL
Temperature
18°C / 64°F
Dewpoint
11°C / 52°F
Humidity
64%
Altimeter
29.9" Hg
Pressure
1012.52 hPa